Time;durP1;ratioP1;P1;durP2;ratioP2;P2;SDS_P1;SDS_P2;PMS_P1;PMS_P2;Temp;Humidity;BMP_temperature;BMP_pressure;BME280_temperature;BME280_humidity;BME280_pressure;Samples;Min_cycle;Max_cycle;Signal;HPM_P1;HPM_P2
2022/05/04 00:01:22;;;;;;;10.93;3.67;;;7.40;99.90;;;;;;5009096;28;20049;-76
2022/05/04 00:03:47;;;;;;;10.30;3.63;;;7.40;99.90;;;;;;5014037;28;20511;-76
2022/05/04 00:06:13;;;;;;;10.38;3.78;;;7.40;99.90;;;;;;5029866;28;20037;-75
2022/05/04 00:08:39;;;;;;;10.88;3.60;;;7.40;99.90;;;;;;5009949;28;20056;-75
2022/05/04 00:11:05;;;;;;;11.75;3.90;;;7.30;99.90;;;;;;5014851;28;20064;-76
2022/05/04 00:13:32;;;;;;;10.55;3.92;;;7.30;99.90;;;;;;5013874;28;20037;-76
2022/05/04 00:16:01;;;;;;;12.70;4.28;;;7.30;99.90;;;;;;5005707;28;20041;-76
2022/05/04 00:18:27;;;;;;;11.85;3.72;;;7.30;99.90;;;;;;5012582;28;20049;-76
2022/05/04 00:20:56;;;;;;;8.30;3.70;;;7.30;99.90;;;;;;5014361;28;20087;-76
2022/05/04 00:23:25;;;;;;;12.80;3.75;;;7.30;99.90;;;;;;5015037;28;20042;-75
2022/05/04 00:25:52;;;;;;;9.68;3.80;;;7.30;99.90;;;;;;5011399;28;20041;-75
2022/05/04 00:28:18;;;;;;;10.65;3.65;;;7.30;99.90;;;;;;5012654;28;20120;-75
2022/05/04 00:30:44;;;;;;;9.38;3.42;;;7.30;99.90;;;;;;5014514;28;20148;-75
2022/05/04 00:33:09;;;;;;;10.88;3.92;;;7.30;99.90;;;;;;5032122;28;20046;-76
2022/05/04 00:35:35;;;;;;;10.02;3.75;;;7.30;99.90;;;;;;5018601;28;20117;-76
2022/05/04 00:38:01;;;;;;;10.30;3.75;;;7.30;99.90;;;;;;5026872;28;20091;-75
2022/05/04 00:40:27;;;;;;;9.90;4.20;;;7.20;99.90;;;;;;5014115;28;20041;-76
2022/05/04 00:42:53;;;;;;;14.18;4.13;;;7.20;99.90;;;;;;5029310;28;20115;-75
2022/05/04 00:45:18;;;;;;;8.65;3.95;;;7.20;99.90;;;;;;5014257;28;20044;-75
2022/05/04 00:47:44;;;;;;;11.18;4.57;;;7.20;99.90;;;;;;5012672;28;20041;-75
2022/05/04 00:50:10;;;;;;;9.07;3.60;;;7.20;99.90;;;;;;5012769;28;20037;-75
2022/05/04 00:52:38;;;;;;;8.93;3.53;;;7.20;99.90;;;;;;5009990;28;20437;-75
2022/05/04 00:55:08;;;;;;;11.48;4.20;;;7.10;99.90;;;;;;5002827;28;20076;-76
2022/05/04 01:00:21;;;;;;;11.77;4.28;;;7.10;99.90;;;;;;5024748;28;20063;-75
2022/05/04 01:02:47;;;;;;;8.02;3.40;;;7.10;99.90;;;;;;5011467;28;20041;-76
2022/05/04 01:05:13;;;;;;;11.43;4.82;;;7.10;99.90;;;;;;5067064;22;20454;-77
2022/05/04 01:07:40;;;;;;;7.25;3.55;;;7.10;99.90;;;;;;5015496;28;20120;-77
2022/05/04 01:10:08;;;;;;;9.32;3.70;;;7.00;99.90;;;;;;5019788;28;20041;-78
2022/05/04 01:12:34;;;;;;;8.85;3.85;;;7.00;99.90;;;;;;4995374;28;20096;-77
2022/05/04 01:15:00;;;;;;;8.77;3.42;;;7.10;99.90;;;;;;5022976;28;20030;-77
2022/05/04 01:17:27;;;;;;;10.45;3.25;;;7.10;99.90;;;;;;5001312;28;20041;-77
2022/05/04 01:19:55;;;;;;;8.57;3.70;;;7.00;99.90;;;;;;5003528;28;20064;-77
2022/05/04 01:22:24;;;;;;;6.68;3.60;;;7.00;99.90;;;;;;4995377;28;20450;-77
2022/05/04 01:24:51;;;;;;;10.95;3.65;;;7.00;99.90;;;;;;5012086;28;20042;-77
2022/05/04 01:27:16;;;;;;;8.40;4.03;;;7.00;99.90;;;;;;5009852;28;20042;-78
2022/05/04 01:29:42;;;;;;;12.65;3.72;;;7.00;99.90;;;;;;4994280;28;20496;-77
2022/05/04 01:32:08;;;;;;;9.18;4.10;;;6.90;99.90;;;;;;5010874;28;20412;-76
2022/05/04 01:34:34;;;;;;;9.70;3.78;;;6.90;99.90;;;;;;5020145;28;20038;-77
2022/05/04 01:37:00;;;;;;;12.00;4.03;;;6.90;99.90;;;;;;5004318;28;20034;-77
2022/05/04 01:39:26;;;;;;;12.27;3.60;;;6.90;99.90;;;;;;5006095;28;20117;-77
2022/05/04 01:42:05;;;;;;;9.10;3.78;;;6.90;99.90;;;;;;5006007;28;20092;-76
2022/05/04 01:44:31;;;;;;;11.73;4.10;;;6.90;99.90;;;;;;5007383;28;20046;-77
2022/05/04 01:46:57;;;;;;;6.88;4.47;;;6.90;99.90;;;;;;5008980;28;20076;-78
2022/05/04 01:49:23;;;;;;;8.63;3.55;;;6.80;99.90;;;;;;5007253;28;20073;-76
2022/05/04 01:51:48;;;;;;;9.38;3.35;;;6.80;99.90;;;;;;5013076;28;20500;-76
2022/05/04 01:54:14;;;;;;;15.05;4.28;;;6.80;99.90;;;;;;5017214;28;20045;-77
2022/05/04 01:56:40;;;;;;;9.55;4.20;;;6.80;99.90;;;;;;5016352;28;20045;-77
2022/05/04 01:59:05;;;;;;;10.07;3.67;;;6.80;99.90;;;;;;5011230;28;20046;-78
2022/05/04 02:01:31;;;;;;;7.43;3.67;;;6.80;99.90;;;;;;5012682;28;20042;-77
2022/05/04 02:03:58;;;;;;;9.25;3.90;;;6.70;99.90;;;;;;5015575;28;20049;-77
2022/05/04 02:06:24;;;;;;;8.65;3.67;;;6.70;99.90;;;;;;5016328;28;20052;-77
2022/05/04 02:08:50;;;;;;;11.13;4.30;;;6.70;99.90;;;;;;5016024;28;20054;-77
2022/05/04 02:11:16;;;;;;;6.55;3.40;;;6.60;99.90;;;;;;5021214;28;20049;-77
2022/05/04 02:13:42;;;;;;;10.95;3.60;;;6.60;99.90;;;;;;5011520;28;20038;-77
2022/05/04 02:16:07;;;;;;;10.60;3.55;;;6.60;99.90;;;;;;5016535;28;20053;-77
2022/05/04 02:18:33;;;;;;;11.52;3.97;;;6.60;99.90;;;;;;4995087;28;20061;-77
2022/05/04 02:21:00;;;;;;;13.10;3.65;;;6.50;99.90;;;;;;5017828;28;20120;-77
2022/05/04 02:23:25;;;;;;;9.10;3.65;;;6.50;99.90;;;;;;5035803;28;20052;-76
2022/05/04 02:25:51;;;;;;;12.20;3.88;;;6.50;99.90;;;;;;5015759;28;20037;-77
2022/05/04 02:28:17;;;;;;;7.95;3.42;;;6.50;99.90;;;;;;5015893;28;20111;-77
2022/05/04 02:30:43;;;;;;;10.07;3.95;;;6.50;99.90;;;;;;5016042;28;20065;-78
2022/05/04 02:33:09;;;;;;;12.38;3.78;;;6.40;99.90;;;;;;5003138;28;20043;-77
2022/05/04 02:38:19;;;;;;;9.23;4.43;;;6.40;99.90;;;;;;5008656;28;20049;-77
2022/05/04 02:40:45;;;;;;;10.15;3.88;;;6.40;99.90;;;;;;5015060;28;20046;-78
2022/05/04 02:43:10;;;;;;;12.48;4.55;;;6.40;99.90;;;;;;5008874;28;20073;-77
2022/05/04 02:45:36;;;;;;;10.35;3.80;;;6.30;99.90;;;;;;4997116;28;20041;-76
2022/05/04 02:48:02;;;;;;;8.25;3.70;;;6.30;99.90;;;;;;5011241;28;20434;-77
2022/05/04 02:50:27;;;;;;;12.05;3.88;;;6.30;99.90;;;;;;5003569;28;20045;-77
2022/05/04 02:52:53;;;;;;;12.65;4.05;;;6.30;99.90;;;;;;5006249;28;20042;-76
2022/05/04 02:55:18;;;;;;;9.40;4.18;;;6.30;99.90;;;;;;5013926;28;20038;-77
2022/05/04 02:57:44;;;;;;;7.07;3.95;;;6.30;99.90;;;;;;5005053;28;20480;-76
2022/05/04 03:00:10;;;;;;;10.50;4.00;;;6.40;99.90;;;;;;5006726;28;20041;-77
2022/05/04 03:02:36;;;;;;;7.80;3.83;;;6.40;99.90;;;;;;5013219;28;20452;-77
2022/05/04 03:05:04;;;;;;;11.05;3.92;;;6.30;99.90;;;;;;5012091;28;20069;-77
2022/05/04 03:07:30;;;;;;;8.50;3.80;;;6.30;99.90;;;;;;5011968;28;20567;-77
2022/05/04 03:09:57;;;;;;;13.73;4.28;;;6.30;99.90;;;;;;5012396;28;20125;-77
2022/05/04 03:12:24;;;;;;;12.23;4.32;;;6.30;99.90;;;;;;5012890;28;20480;-77
2022/05/04 03:14:49;;;;;;;11.70;4.43;;;6.40;99.90;;;;;;5025239;28;20034;-76
2022/05/04 03:17:16;;;;;;;11.45;3.88;;;6.30;99.90;;;;;;5022129;28;20460;-77
2022/05/04 03:19:41;;;;;;;10.63;4.20;;;6.30;99.90;;;;;;5017454;28;20038;-77
2022/05/04 03:22:07;;;;;;;8.25;4.50;;;6.30;99.90;;;;;;5015765;28;20029;-76
2022/05/04 03:24:33;;;;;;;8.85;3.95;;;6.30;99.90;;;;;;5019660;28;20041;-76
2022/05/04 03:26:58;;;;;;;11.48;4.00;;;6.30;99.90;;;;;;5024137;28;20510;-76
2022/05/04 03:29:24;;;;;;;8.15;3.80;;;6.30;99.90;;;;;;4999956;28;20053;-77
2022/05/04 03:31:50;;;;;;;8.65;4.13;;;6.30;99.90;;;;;;5015635;28;20046;-76
2022/05/04 03:34:15;;;;;;;12.90;4.30;;;6.30;99.90;;;;;;5016549;28;20057;-77
2022/05/04 03:36:41;;;;;;;10.07;3.95;;;6.30;99.90;;;;;;4997058;28;20033;-77
2022/05/04 03:39:07;;;;;;;9.10;4.35;;;6.30;99.90;;;;;;5023073;28;20033;-78
2022/05/04 03:41:33;;;;;;;7.03;3.60;;;6.40;99.90;;;;;;5015825;28;20045;-77
2022/05/04 03:44:00;;;;;;;10.63;4.43;;;6.30;99.90;;;;;;5027845;28;20085;-77
2022/05/04 03:46:27;;;;;;;8.30;4.30;;;6.30;99.90;;;;;;5011037;28;20541;-76
2022/05/04 03:48:55;;;;;;;8.63;3.92;;;6.30;99.90;;;;;;5015496;28;20061;-78
2022/05/04 03:51:21;;;;;;;11.52;4.45;;;6.30;99.90;;;;;;5008179;28;20046;-77
2022/05/04 03:53:48;;;;;;;10.63;4.30;;;6.20;99.90;;;;;;5029195;28;20038;-78
2022/05/04 03:56:14;;;;;;;9.38;4.47;;;6.30;99.90;;;;;;5007398;28;20419;-77
2022/05/04 03:58:40;;;;;;;11.95;4.22;;;6.20;99.90;;;;;;5015687;28;20415;-77
2022/05/04 04:01:06;;;;;;;11.40;4.57;;;6.30;99.90;;;;;;5013962;28;20037;-77
2022/05/04 04:03:32;;;;;;;10.68;4.47;;;6.30;99.90;;;;;;5022168;28;20176;-77
2022/05/04 04:05:58;;;;;;;11.65;4.68;;;6.30;99.90;;;;;;5006009;28;20057;-77
2022/05/04 04:08:24;;;;;;;11.45;4.45;;;6.30;99.90;;;;;;5015109;28;20046;-77
2022/05/04 04:10:49;;;;;;;11.10;4.72;;;6.30;99.90;;;;;;5013454;28;20084;-77
2022/05/04 04:13:15;;;;;;;8.23;4.10;;;6.30;99.90;;;;;;5014812;28;20049;-77
2022/05/04 04:15:45;;;;;;;10.45;3.85;;;6.30;99.90;;;;;;5005628;28;20046;-77
2022/05/04 04:18:10;;;;;;;8.68;4.43;;;6.30;99.90;;;;;;5018724;28;20045;-77
2022/05/04 04:23:20;;;;;;;8.95;4.57;;;6.40;99.90;;;;;;5033842;28;20052;-77
2022/05/04 04:25:46;;;;;;;8.15;3.75;;;6.40;99.90;;;;;;4991210;28;20489;-77
2022/05/04 04:28:12;;;;;;;12.25;4.57;;;6.40;99.90;;;;;;5001474;28;20403;-77
2022/05/04 04:30:39;;;;;;;8.70;4.00;;;6.40;99.90;;;;;;5025512;28;20091;-77
2022/05/04 04:33:08;;;;;;;11.10;4.57;;;6.40;99.90;;;;;;5025909;28;20034;-77
2022/05/04 04:35:34;;;;;;;11.00;4.95;;;6.50;99.90;;;;;;5007354;28;20034;-77
2022/05/04 04:38:00;;;;;;;15.57;4.88;;;6.50;99.90;;;;;;5013624;28;20041;-77
2022/05/04 04:40:26;;;;;;;10.88;4.38;;;6.60;99.90;;;;;;5005770;28;20038;-78
2022/05/04 04:42:52;;;;;;;7.28;4.03;;;6.60;99.90;;;;;;5021929;28;20042;-77
2022/05/04 04:45:20;;;;;;;10.88;4.63;;;6.60;99.90;;;;;;5027353;28;20045;-77
2022/05/04 04:47:46;;;;;;;9.50;4.30;;;6.70;99.90;;;;;;4997160;28;20049;-76
2022/05/04 04:50:11;;;;;;;12.73;4.88;;;6.70;99.90;;;;;;5001453;28;20037;-77
2022/05/04 04:52:37;;;;;;;9.05;4.75;;;6.70;99.90;;;;;;5016846;28;20125;-77
2022/05/04 04:55:04;;;;;;;11.48;4.78;;;6.80;99.90;;;;;;4997189;28;20397;-77
2022/05/04 04:57:29;;;;;;;7.65;4.75;;;6.80;99.90;;;;;;4994825;28;20042;-77
2022/05/04 04:59:55;;;;;;;15.13;5.07;;;6.90;99.90;;;;;;5012406;28;20038;-77
2022/05/04 05:02:21;;;;;;;10.07;4.60;;;6.90;99.90;;;;;;5018648;28;20135;-77
2022/05/04 05:04:46;;;;;;;10.38;4.60;;;7.00;99.90;;;;;;4995845;28;20475;-78
2022/05/04 05:07:12;;;;;;;10.35;4.20;;;7.00;99.90;;;;;;4990768;28;20109;-77
2022/05/04 05:09:37;;;;;;;10.68;4.65;;;7.10;99.90;;;;;;5008351;28;20048;-77
2022/05/04 05:12:03;;;;;;;8.73;5.40;;;7.20;99.90;;;;;;4995964;28;20045;-77
2022/05/04 05:17:13;;;;;;;11.27;5.05;;;7.20;99.90;;;;;;5017486;28;20510;-77
2022/05/04 05:19:38;;;;;;;8.68;4.63;;;7.30;99.90;;;;;;5009419;28;20128;-77
2022/05/04 05:22:04;;;;;;;11.27;4.85;;;7.30;99.90;;;;;;5014543;28;20040;-77
2022/05/04 05:24:30;;;;;;;8.65;4.30;;;7.40;99.90;;;;;;5030941;28;20124;-77
2022/05/04 05:26:55;;;;;;;10.40;4.97;;;7.30;99.90;;;;;;5009530;28;20034;-77
2022/05/04 05:29:21;;;;;;;7.60;5.00;;;7.50;99.90;;;;;;5003697;28;20042;-77
2022/05/04 05:31:46;;;;;;;9.60;4.90;;;7.50;99.90;;;;;;5007382;28;20045;-77
2022/05/04 05:34:12;;;;;;;10.35;4.60;;;7.60;99.90;;;;;;4990956;28;20538;-77
2022/05/04 05:36:37;;;;;;;10.27;4.07;;;7.70;99.90;;;;;;4992180;28;20030;-79
2022/05/04 05:39:04;;;;;;;15.45;5.53;;;7.70;99.90;;;;;;5017129;28;20048;-77
2022/05/04 05:41:31;;;;;;;8.05;4.72;;;7.80;99.90;;;;;;5028772;28;20107;-77
2022/05/04 05:43:56;;;;;;;9.50;4.65;;;7.80;99.90;;;;;;5035128;28;20045;-77
2022/05/04 05:46:22;;;;;;;10.65;4.25;;;7.90;99.90;;;;;;5017655;28;20088;-77
2022/05/04 05:48:48;;;;;;;10.02;4.50;;;8.00;99.90;;;;;;4989974;28;20170;-78
2022/05/04 05:51:13;;;;;;;12.50;4.50;;;8.00;99.90;;;;;;4998578;28;20463;-75
2022/05/04 05:53:39;;;;;;;9.43;4.07;;;8.10;99.90;;;;;;5013195;28;20566;-76
2022/05/04 05:56:05;;;;;;;11.00;3.97;;;8.20;99.90;;;;;;5016990;28;20029;-75
2022/05/04 05:58:30;;;;;;;9.23;4.20;;;8.30;99.90;;;;;;5015592;28;20116;-75
2022/05/04 06:00:56;;;;;;;9.98;3.50;;;8.40;99.90;;;;;;5001490;28;20129;-77
2022/05/04 06:03:22;;;;;;;7.80;3.80;;;8.60;99.90;;;;;;5026940;28;20042;-75
2022/05/04 06:05:48;;;;;;;9.35;3.47;;;8.60;99.90;;;;;;5030349;28;20049;-75
2022/05/04 06:08:13;;;;;;;7.35;3.65;;;8.60;99.90;;;;;;5008859;28;20030;-75
2022/05/04 06:10:39;;;;;;;8.05;4.20;;;8.70;99.90;;;;;;4998238;28;20177;-76
2022/05/04 06:13:06;;;;;;;8.40;4.10;;;8.80;99.90;;;;;;4999595;28;20034;-76
2022/05/04 06:15:32;;;;;;;8.35;3.80;;;8.90;99.90;;;;;;5000437;28;20030;-76
2022/05/04 06:17:58;;;;;;;15.23;4.57;;;9.00;99.90;;;;;;5015587;28;20088;-76
2022/05/04 06:20:24;;;;;;;10.25;3.67;;;9.10;99.90;;;;;;4997306;28;20042;-76
2022/05/04 06:22:50;;;;;;;12.60;3.33;;;9.10;99.90;;;;;;5014024;28;20034;-76
2022/05/04 06:25:16;;;;;;;8.25;3.55;;;9.20;99.90;;;;;;5014821;28;20444;-76
2022/05/04 06:27:41;;;;;;;11.63;3.40;;;9.20;99.90;;;;;;5007943;28;20045;-76
2022/05/04 06:35:36;;;;;;;6.53;3.70;;;9.60;99.90;;;;;;5036199;28;20060;-76
2022/05/04 06:38:02;;;;;;;8.25;3.70;;;9.70;99.90;;;;;;5036552;28;20536;-76
2022/05/04 06:40:28;;;;;;;10.75;3.00;;;9.90;99.90;;;;;;5029549;28;20119;-76
2022/05/04 06:42:53;;;;;;;8.93;3.42;;;10.00;99.90;;;;;;5027547;28;20044;-77
2022/05/04 06:45:19;;;;;;;10.38;3.55;;;10.00;99.90;;;;;;5029358;28;20152;-77
2022/05/04 06:47:44;;;;;;;9.18;3.20;;;10.10;99.90;;;;;;4995949;28;20097;-77
2022/05/04 06:50:10;;;;;;;8.57;3.38;;;10.10;99.90;;;;;;5009247;28;20464;-76
2022/05/04 06:52:37;;;;;;;9.65;3.42;;;10.20;99.90;;;;;;5006896;28;20092;-78
2022/05/04 06:55:03;;;;;;;10.25;3.97;;;10.40;99.90;;;;;;4999934;28;20034;-77
2022/05/04 06:57:29;;;;;;;8.73;3.45;;;10.40;99.90;;;;;;5012037;28;20540;-77
2022/05/04 06:59:55;;;;;;;11.55;3.50;;;10.60;99.90;;;;;;5010453;28;20201;-77
2022/05/04 07:02:21;;;;;;;8.70;3.20;;;10.70;99.90;;;;;;5011039;28;20050;-76
2022/05/04 07:07:24;;;;;;;8.35;3.25;;;10.90;99.90;;;;;;5053450;28;20060;-75
2022/05/04 07:09:53;;;;;;;9.88;3.58;;;11.00;99.90;;;;;;5019226;28;20041;-77
2022/05/04 07:12:25;;;;;;;8.23;3.83;;;11.20;99.90;;;;;;5019488;28;20041;-78
2022/05/04 07:14:58;;;;;;;7.50;3.20;;;11.30;99.90;;;;;;5045050;28;20517;-79
2022/05/04 07:17:36;;;;;;;6.90;3.40;;;11.40;99.90;;;;;;5036182;28;20041;-79
2022/05/04 07:20:16;;;;;;;9.48;3.35;;;11.50;99.90;;;;;;5018743;28;20103;-79
2022/05/04 07:22:57;;;;;;;12.57;3.55;;;11.60;99.90;;;;;;5018398;28;20498;-79
2022/05/04 07:25:48;;;;;;;10.15;3.25;;;11.60;99.90;;;;;;5030689;28;20064;-78
2022/05/04 07:28:26;;;;;;;9.75;3.25;;;11.70;99.90;;;;;;5026477;28;20033;-79
2022/05/04 07:31:15;;;;;;;8.50;2.88;;;11.70;99.90;;;;;;5017722;28;20048;-78
2022/05/04 07:33:49;;;;;;;9.27;3.30;;;11.80;99.60;;;;;;5004846;28;20075;-78
2022/05/04 07:36:23;;;;;;;9.85;3.33;;;11.80;98.60;;;;;;5023500;28;20045;-79
2022/05/04 07:38:51;;;;;;;8.48;3.13;;;11.80;93.70;;;;;;5003999;28;20076;-79
2022/05/04 07:44:06;;;;;;;11.65;3.33;;;11.60;91.80;;;;;;5022899;28;20041;-79
2022/05/04 07:46:50;;;;;;;9.77;2.90;;;11.50;93.30;;;;;;5028547;28;20528;-78
2022/05/04 07:49:18;;;;;;;8.75;3.17;;;11.70;94.60;;;;;;5025098;28;20037;-79
2022/05/04 07:51:51;;;;;;;12.93;3.60;;;11.90;96.30;;;;;;5019598;28;20037;-78
2022/05/04 07:54:17;;;;;;;12.43;3.40;;;12.10;97.30;;;;;;5015302;28;20586;-78
2022/05/04 07:57:10;;;;;;;6.85;3.30;;;12.30;95.50;;;;;;5050272;28;20110;-78
2022/05/04 08:05:53;;;;;;;7.72;2.97;;;12.90;91.50;;;;;;5021093;28;20128;-79
2022/05/04 08:08:30;;;;;;;9.52;3.00;;;13.00;91.10;;;;;;5019875;28;20080;-79
2022/05/04 08:11:04;;;;;;;10.30;2.97;;;13.20;84.60;;;;;;5021938;28;20037;-79
2022/05/04 08:13:41;;;;;;;6.78;3.60;;;13.30;84.60;;;;;;5023578;28;20135;-79
2022/05/04 08:16:15;;;;;;;9.27;3.40;;;13.50;91.90;;;;;;5017380;28;20239;-79
2022/05/04 08:18:54;;;;;;;6.45;2.80;;;13.90;92.10;;;;;;5047005;28;20498;-79
2022/05/04 08:21:42;;;;;;;8.00;2.50;;;13.90;84.30;;;;;;5014929;28;20037;-79
2022/05/04 08:24:22;;;;;;;8.38;2.80;;;13.80;85.20;;;;;;5001280;28;20404;-79
2022/05/04 08:26:56;;;;;;;7.18;2.83;;;13.90;84.10;;;;;;5000474;28;20455;-79
2022/05/04 08:29:28;;;;;;;6.68;3.10;;;14.50;87.20;;;;;;5003446;28;20037;-79
2022/05/04 08:32:10;;;;;;;6.10;2.92;;;15.30;86.20;;;;;;5014364;28;20071;-79
2022/05/04 08:35:01;;;;;;;;;;;;;;;;;;;;;
2022/05/04 08:37:34;;;;;;;6.28;2.40;;;17.40;77.50;;;;;;5039671;28;20507;-79
2022/05/04 08:40:15;;;;;;;5.85;2.63;;;17.80;68.80;;;;;;5021126;28;20087;-79
2022/05/04 08:42:49;;;;;;;5.90;2.50;;;17.50;66.20;;;;;;5021671;28;20049;-79
2022/05/04 08:45:25;;;;;;;8.80;2.83;;;18.00;68.10;;;;;;5019572;28;20043;-80
2022/05/04 08:48:02;;;;;;;6.90;2.60;;;18.50;57.70;;;;;;5035905;28;20040;-79
2022/05/04 08:50:56;;;;;;;7.15;2.70;;;18.70;61.70;;;;;;5020265;28;20040;-77
2022/05/04 08:57:11;;;;;;;4.38;2.35;;;20.30;51.90;;;;;;4997147;28;20534;-78
2022/05/04 08:59:43;;;;;;;5.82;2.28;;;20.90;54.90;;;;;;5017532;28;20045;-78
2022/05/04 09:02:15;;;;;;;7.57;2.33;;;21.00;54.40;;;;;;5018140;28;20040;-78
2022/05/04 09:04:46;;;;;;;4.05;1.80;;;20.90;55.70;;;;;;5016626;28;20479;-77
2022/05/04 09:08:11;;;;;;;4.90;2.22;;;20.90;54.60;;;;;;5018417;28;20050;-77
2022/05/04 09:11:07;;;;;;;6.95;2.63;;;20.20;47.90;;;;;;5026661;28;20507;-77
2022/05/04 09:13:51;;;;;;;7.05;2.47;;;19.30;53.50;;;;;;5031837;28;20033;-77
2022/05/04 09:16:37;;;;;;;7.20;2.13;;;18.90;53.20;;;;;;5013613;28;20048;-77
2022/05/04 09:19:11;;;;;;;6.93;2.47;;;18.50;54.70;;;;;;5023541;28;20032;-75
2022/05/04 09:21:56;;;;;;;6.03;2.17;;;18.00;54.70;;;;;;5021766;28;20040;-76
2022/05/04 09:24:57;;;;;;;7.32;2.70;;;17.50;53.20;;;;;;5015513;28;20044;-76
2022/05/04 09:27:37;;;;;;;7.53;2.58;;;16.90;54.60;;;;;;4993145;28;20511;-77
2022/05/04 09:30:05;;;;;;;7.40;2.75;;;17.20;55.60;;;;;;5021636;28;20475;-77
2022/05/04 09:46:48;;;;;;;5.10;2.20;;;19.30;51.40;;;;;;5012555;28;20080;-77
2022/05/04 09:49:40;;;;;;;6.28;2.50;;;19.20;49.00;;;;;;5038584;28;20052;-79
2022/05/04 09:52:25;;;;;;;8.38;2.40;;;18.90;50.90;;;;;;5043757;28;20041;-78
2022/05/04 09:55:13;;;;;;;6.00;2.20;;;19.30;52.90;;;;;;5014758;28;20282;-76
2022/05/04 09:57:42;;;;;;;6.50;2.15;;;19.90;52.00;;;;;;5011841;28;20043;-77
2022/05/04 10:00:21;;;;;;;4.70;2.30;;;20.60;50.50;;;;;;5041598;28;20052;-78
2022/05/04 10:03:18;;;;;;;5.55;2.25;;;21.00;48.50;;;;;;5046407;28;20069;-78
2022/05/04 10:06:16;;;;;;;5.65;2.60;;;20.90;47.90;;;;;;5049837;28;20041;-78
2022/05/04 10:08:59;;;;;;;6.28;2.70;;;20.60;48.40;;;;;;5065101;28;20048;-78
2022/05/04 10:11:58;;;;;;;9.10;2.67;;;20.80;49.10;;;;;;5037201;28;20501;-77
2022/05/04 10:14:31;;;;;;;6.85;2.08;;;21.50;44.30;;;;;;5007961;28;20041;-76
2022/05/04 10:17:11;;;;;;;6.05;1.90;;;21.20;44.40;;;;;;5026974;28;20651;-76
2022/05/04 10:19:47;;;;;;;5.85;2.20;;;21.10;48.00;;;;;;5028122;28;20071;-76
2022/05/04 10:22:21;;;;;;;5.57;2.80;;;21.30;45.80;;;;;;5015966;28;20094;-76
2022/05/04 10:24:53;;;;;;;7.68;2.10;;;21.20;46.50;;;;;;5014058;28;20071;-76
2022/05/04 10:27:25;;;;;;;6.38;2.70;;;21.30;48.30;;;;;;5013727;28;20124;-76
2022/05/04 10:32:56;;;;;;;7.90;2.63;;;22.10;48.50;;;;;;5036465;28;20063;-77
2022/05/04 10:35:44;;;;;;;5.93;2.38;;;21.90;46.30;;;;;;5013292;28;20584;-76
2022/05/04 10:38:29;;;;;;;5.10;2.28;;;21.30;47.40;;;;;;5007393;28;20112;-76
2022/05/04 10:41:07;;;;;;;5.30;2.40;;;21.10;47.80;;;;;;5051877;28;20499;-76
2022/05/04 10:43:37;;;;;;;5.38;2.63;;;20.80;46.00;;;;;;5015024;28;20079;-78
2022/05/04 10:46:07;;;;;;;5.53;2.53;;;20.60;47.20;;;;;;5028199;28;20045;-76
2022/05/04 10:48:41;;;;;;;5.57;2.15;;;20.70;47.80;;;;;;5035580;28;20049;-76
2022/05/04 10:51:21;;;;;;;4.47;2.33;;;20.90;47.90;;;;;;5045020;28;20406;-76
2022/05/04 10:53:57;;;;;;;6.57;2.45;;;21.30;47.20;;;;;;5012292;28;20095;-76
2022/05/04 10:56:37;;;;;;;5.18;2.30;;;21.50;45.90;;;;;;5058946;28;20033;-76
2022/05/04 10:59:06;;;;;;;5.32;2.35;;;21.00;45.00;;;;;;5034004;28;20043;-76
2022/05/04 11:01:56;;;;;;;9.70;2.53;;;20.40;46.70;;;;;;5019686;28;20041;-76
2022/05/04 11:04:25;;;;;;;7.47;2.45;;;20.00;48.50;;;;;;5029209;28;20051;-76
2022/05/04 11:07:17;;;;;;;5.30;2.40;;;20.10;43.80;;;;;;5018169;28;20045;-76
2022/05/04 11:09:59;;;;;;;7.00;2.38;;;19.60;42.90;;;;;;5026137;28;20040;-75
2022/05/04 11:12:31;;;;;;;6.22;2.67;;;18.90;45.20;;;;;;5013845;28;20060;-75
2022/05/04 11:14:57;;;;;;;7.33;2.40;;;18.70;45.70;;;;;;5015425;28;20065;-76
2022/05/04 11:17:33;;;;;;;5.82;2.45;;;18.80;48.20;;;;;;5046134;28;20045;-76
2022/05/04 11:20:04;;;;;;;5.28;2.50;;;19.60;51.40;;;;;;5017516;28;20037;-76
2022/05/04 11:22:30;;;;;;;7.18;2.40;;;20.50;50.00;;;;;;5015478;28;20033;-76
2022/05/04 11:25:02;;;;;;;5.63;2.05;;;21.30;48.90;;;;;;5063672;28;20053;-76
2022/05/04 11:27:34;;;;;;;6.00;2.55;;;22.10;43.60;;;;;;5017488;28;20047;-76
2022/05/04 11:30:08;;;;;;;6.88;2.70;;;21.80;45.70;;;;;;5033312;28;20033;-76
2022/05/04 11:32:34;;;;;;;4.78;2.38;;;22.00;47.30;;;;;;5018776;28;20041;-76
2022/05/04 11:35:03;;;;;;;4.50;2.10;;;22.40;45.90;;;;;;5017663;28;20487;-76
2022/05/04 11:37:32;;;;;;;6.57;2.58;;;22.40;42.10;;;;;;5018533;28;20047;-76
2022/05/04 11:40:23;;;;;;;8.15;2.80;;;21.80;42.80;;;;;;5034192;28;20102;-76
2022/05/04 11:42:51;;;;;;;6.30;2.65;;;21.10;45.40;;;;;;5014029;28;20091;-76
2022/05/04 11:45:18;;;;;;;4.40;2.22;;;21.10;46.10;;;;;;5012495;28;20102;-76
2022/05/04 11:47:46;;;;;;;4.78;2.45;;;21.00;44.90;;;;;;5017754;28;20033;-76
2022/05/04 11:50:15;;;;;;;7.90;2.53;;;20.90;45.20;;;;;;5018326;28;20079;-76
2022/05/04 11:52:54;;;;;;;5.93;2.60;;;20.80;45.50;;;;;;5015800;28;20087;-76
2022/05/04 11:55:22;;;;;;;7.32;2.80;;;20.90;45.80;;;;;;5028186;28;20037;-76
2022/05/04 11:58:06;;;;;;;7.70;2.70;;;20.70;45.70;;;;;;5037904;28;20399;-76
2022/05/04 12:00:36;;;;;;;6.95;3.50;;;20.80;43.60;;;;;;5033574;28;20044;-76
2022/05/04 12:03:10;;;;;;;6.35;2.92;;;20.80;45.80;;;;;;5018358;28;20072;-76
2022/05/04 12:05:41;;;;;;;6.55;3.22;;;21.40;47.00;;;;;;5017670;28;20132;-76
2022/05/04 12:08:41;;;;;;;;;;;;;;;;;;;;;
2022/05/04 12:11:10;;;;;;;5.43;2.70;;;22.90;46.10;;;;;;5029168;28;20045;-76
2022/05/04 12:13:41;;;;;;;6.55;2.95;;;23.70;44.10;;;;;;5013839;28;20045;-76
2022/05/04 12:16:09;;;;;;;5.55;2.55;;;24.20;44.70;;;;;;5043742;28;20076;-76
2022/05/04 12:18:39;;;;;;;5.80;2.55;;;24.50;42.30;;;;;;5009812;28;20041;-76
2022/05/04 12:21:11;;;;;;;4.65;2.42;;;24.40;42.70;;;;;;5027929;28;20049;-76
2022/05/04 12:23:54;;;;;;;6.00;2.70;;;24.50;43.40;;;;;;5046961;28;20057;-76
2022/05/04 12:26:21;;;;;;;7.30;2.30;;;25.00;43.50;;;;;;5008919;28;20106;-76
2022/05/04 12:34:27;;;;;;;7.07;2.85;;;25.80;37.40;;;;;;5033579;28;20040;-76
2022/05/04 12:37:03;;;;;;;4.25;2.50;;;24.80;39.60;;;;;;5018736;28;20053;-75
2022/05/04 12:39:32;;;;;;;6.07;2.70;;;24.20;39.30;;;;;;5005501;28;20041;-75
2022/05/04 12:42:07;;;;;;;5.00;2.60;;;23.60;39.30;;;;;;5002127;28;20462;-75
2022/05/04 12:44:36;;;;;;;5.63;2.57;;;23.00;39.80;;;;;;5007237;28;20045;-76
2022/05/04 12:47:08;;;;;;;5.43;2.70;;;22.40;40.30;;;;;;5065212;28;20296;-75
2022/05/04 12:49:34;;;;;;;5.65;2.67;;;21.80;40.10;;;;;;5047175;28;20049;-75
2022/05/04 12:52:00;;;;;;;5.75;2.90;;;21.20;42.00;;;;;;5016698;28;20055;-75
2022/05/04 12:54:38;;;;;;;6.97;3.03;;;20.90;43.40;;;;;;5010680;28;20033;-75
2022/05/04 12:57:09;;;;;;;5.43;2.95;;;21.10;45.30;;;;;;5033077;28;20049;-75
2022/05/04 12:59:42;;;;;;;7.82;3.15;;;21.50;44.50;;;;;;5046839;28;20048;-75
2022/05/04 13:02:11;;;;;;;6.97;3.53;;;21.80;42.30;;;;;;5049832;28;20124;-75
2022/05/04 13:04:40;;;;;;;6.00;3.20;;;21.90;45.60;;;;;;4999682;28;20052;-75
2022/05/04 13:07:14;;;;;;;5.97;3.50;;;22.40;45.40;;;;;;5047617;28;20045;-76
2022/05/04 13:09:52;;;;;;;5.28;2.80;;;23.00;43.70;;;;;;5031773;28;20041;-76
2022/05/04 13:12:21;;;;;;;6.28;3.08;;;23.60;44.50;;;;;;5017213;28;20120;-76
2022/05/04 13:14:50;;;;;;;8.57;3.40;;;24.10;41.80;;;;;;5016999;28;20517;-77
2022/05/04 13:17:18;;;;;;;9.15;3.25;;;24.30;42.60;;;;;;5017554;28;20033;-77
2022/05/04 13:19:47;;;;;;;9.82;3.05;;;24.60;42.50;;;;;;5014501;28;20049;-77
2022/05/04 13:22:15;;;;;;;5.75;2.97;;;24.70;42.60;;;;;;5016903;28;20409;-77
2022/05/04 13:24:41;;;;;;;7.88;3.13;;;24.70;41.00;;;;;;5010984;28;20484;-77
2022/05/04 13:27:06;;;;;;;8.40;3.35;;;24.30;41.60;;;;;;5016728;28;20067;-77
2022/05/04 13:29:35;;;;;;;8.35;3.25;;;24.20;43.40;;;;;;5004580;28;20042;-77
2022/05/04 13:32:08;;;;;;;13.15;3.50;;;24.30;43.40;;;;;;5032587;28;20044;-77
2022/05/04 13:34:33;;;;;;;6.10;3.13;;;24.50;43.50;;;;;;5033262;28;20171;-77
2022/05/04 13:37:02;;;;;;;7.85;3.40;;;24.80;42.50;;;;;;5019839;28;20526;-75
2022/05/04 13:39:30;;;;;;;6.68;3.00;;;25.00;40.20;;;;;;5010149;28;20510;-76
2022/05/04 13:41:58;;;;;;;5.72;3.25;;;25.30;41.90;;;;;;5041189;28;20414;-75
2022/05/04 13:44:26;;;;;;;6.55;3.17;;;25.60;42.30;;;;;;5028548;28;20049;-76
2022/05/04 13:46:51;;;;;;;6.88;3.17;;;25.70;41.50;;;;;;5031454;28;20052;-76
2022/05/04 13:49:17;;;;;;;7.60;3.17;;;25.90;40.90;;;;;;5028466;28;20041;-76
2022/05/04 13:54:30;;;;;;;7.07;3.20;;;25.40;39.10;;;;;;5033300;28;20047;-76
2022/05/04 13:56:56;;;;;;;8.13;3.80;;;25.10;40.90;;;;;;5015494;28;20032;-76
2022/05/04 13:59:21;;;;;;;10.10;3.55;;;25.10;38.60;;;;;;5029695;28;20048;-75
2022/05/04 14:01:47;;;;;;;5.35;3.15;;;24.70;39.50;;;;;;5019531;28;20127;-75
2022/05/04 14:04:15;;;;;;;6.20;3.67;;;24.30;41.50;;;;;;5018901;28;20047;-75